sensor_id;sensor_type;location;lat;lon;timestamp;P1;durP1;ratioP1;P2;durP2;ratioP2
56141;SDS011;42018;48.588;10.836;2023-07-13T00:02:12;4.05;;;1.77;;
56141;SDS011;42018;48.588;10.836;2023-07-13T00:04:57;4.43;;;1.80;;
56141;SDS011;42018;48.588;10.836;2023-07-13T00:07:42;4.78;;;1.50;;
56141;SDS011;42018;48.588;10.836;2023-07-13T00:10:28;5.80;;;1.80;;
56141;SDS011;42018;48.588;10.836;2023-07-13T00:13:13;4.38;;;1.80;;
56141;SDS011;42018;48.588;10.836;2023-07-13T00:15:58;4.00;;;1.70;;
56141;SDS011;42018;48.588;10.836;2023-07-13T00:18:44;4.57;;;1.95;;
56141;SDS011;42018;48.588;10.836;2023-07-13T00:21:30;7.18;;;1.90;;
56141;SDS011;42018;48.588;10.836;2023-07-13T00:24:16;3.92;;;2.00;;
56141;SDS011;42018;48.588;10.836;2023-07-13T00:27:08;3.75;;;1.83;;
56141;SDS011;42018;48.588;10.836;2023-07-13T00:29:54;5.28;;;2.13;;
56141;SDS011;42018;48.588;10.836;2023-07-13T00:32:40;4.13;;;2.00;;
56141;SDS011;42018;48.588;10.836;2023-07-13T00:35:25;5.53;;;1.85;;
56141;SDS011;42018;48.588;10.836;2023-07-13T00:38:11;4.32;;;1.80;;
56141;SDS011;42018;48.588;10.836;2023-07-13T00:40:56;4.55;;;1.83;;
56141;SDS011;42018;48.588;10.836;2023-07-13T00:43:42;6.90;;;2.20;;
56141;SDS011;42018;48.588;10.836;2023-07-13T00:46:28;6.15;;;2.53;;
56141;SDS011;42018;48.588;10.836;2023-07-13T00:49:16;4.55;;;2.10;;
56141;SDS011;42018;48.588;10.836;2023-07-13T00:52:06;4.95;;;2.17;;
56141;SDS011;42018;48.588;10.836;2023-07-13T00:54:53;5.82;;;2.17;;
56141;SDS011;42018;48.588;10.836;2023-07-13T00:57:40;4.57;;;2.20;;
56141;SDS011;42018;48.588;10.836;2023-07-13T01:00:26;4.07;;;2.00;;
56141;SDS011;42018;48.588;10.836;2023-07-13T01:03:14;4.78;;;2.28;;
56141;SDS011;42018;48.588;10.836;2023-07-13T01:06:00;5.57;;;2.22;;
56141;SDS011;42018;48.588;10.836;2023-07-13T01:08:46;5.65;;;2.30;;
56141;SDS011;42018;48.588;10.836;2023-07-13T01:11:31;5.75;;;2.38;;
56141;SDS011;42018;48.588;10.836;2023-07-13T01:14:17;4.78;;;2.33;;
56141;SDS011;42018;48.588;10.836;2023-07-13T01:17:02;5.45;;;2.35;;
56141;SDS011;42018;48.588;10.836;2023-07-13T01:19:49;5.45;;;2.42;;
56141;SDS011;42018;48.588;10.836;2023-07-13T01:22:34;5.25;;;2.40;;
56141;SDS011;42018;48.588;10.836;2023-07-13T01:25:19;6.75;;;2.60;;
56141;SDS011;42018;48.588;10.836;2023-07-13T01:28:06;7.00;;;2.50;;
56141;SDS011;42018;48.588;10.836;2023-07-13T01:30:54;5.35;;;2.60;;
56141;SDS011;42018;48.588;10.836;2023-07-13T01:33:41;5.15;;;2.22;;
56141;SDS011;42018;48.588;10.836;2023-07-13T01:36:27;5.75;;;2.50;;
56141;SDS011;42018;48.588;10.836;2023-07-13T01:39:12;4.38;;;2.40;;
56141;SDS011;42018;48.588;10.836;2023-07-13T01:41:57;5.90;;;2.60;;
56141;SDS011;42018;48.588;10.836;2023-07-13T01:44:43;4.85;;;2.20;;
56141;SDS011;42018;48.588;10.836;2023-07-13T01:47:28;7.80;;;2.70;;
56141;SDS011;42018;48.588;10.836;2023-07-13T01:50:15;6.05;;;2.72;;
56141;SDS011;42018;48.588;10.836;2023-07-13T01:53:01;5.93;;;2.70;;
56141;SDS011;42018;48.588;10.836;2023-07-13T01:55:47;6.35;;;2.50;;
56141;SDS011;42018;48.588;10.836;2023-07-13T02:02:04;6.57;;;2.97;;
56141;SDS011;42018;48.588;10.836;2023-07-13T02:08:34;7.35;;;3.00;;
56141;SDS011;42018;48.588;10.836;2023-07-13T02:11:20;5.10;;;2.45;;
56141;SDS011;42018;48.588;10.836;2023-07-13T02:14:05;5.82;;;2.70;;
56141;SDS011;42018;48.588;10.836;2023-07-13T02:16:51;5.70;;;2.72;;
56141;SDS011;42018;48.588;10.836;2023-07-13T02:19:36;5.00;;;2.80;;
56141;SDS011;42018;48.588;10.836;2023-07-13T02:22:21;8.48;;;2.78;;
56141;SDS011;42018;48.588;10.836;2023-07-13T02:25:07;7.18;;;2.90;;
56141;SDS011;42018;48.588;10.836;2023-07-13T02:27:52;4.50;;;2.58;;
56141;SDS011;42018;48.588;10.836;2023-07-13T02:30:38;5.75;;;2.83;;
56141;SDS011;42018;48.588;10.836;2023-07-13T02:33:23;7.55;;;3.05;;
56141;SDS011;42018;48.588;10.836;2023-07-13T02:36:09;7.05;;;3.20;;
56141;SDS011;42018;48.588;10.836;2023-07-13T02:38:55;6.80;;;3.25;;
56141;SDS011;42018;48.588;10.836;2023-07-13T02:41:41;6.75;;;3.22;;
56141;SDS011;42018;48.588;10.836;2023-07-13T02:44:26;5.57;;;3.10;;
56141;SDS011;42018;48.588;10.836;2023-07-13T02:47:11;7.45;;;3.13;;
56141;SDS011;42018;48.588;10.836;2023-07-13T02:49:58;6.28;;;2.90;;
56141;SDS011;42018;48.588;10.836;2023-07-13T02:52:43;6.35;;;3.50;;
56141;SDS011;42018;48.588;10.836;2023-07-13T02:55:28;8.98;;;3.90;;
56141;SDS011;42018;48.588;10.836;2023-07-13T02:58:14;6.05;;;3.20;;
56141;SDS011;42018;48.588;10.836;2023-07-13T03:01:05;6.55;;;3.35;;
56141;SDS011;42018;48.588;10.836;2023-07-13T03:03:54;5.63;;;2.90;;
56141;SDS011;42018;48.588;10.836;2023-07-13T03:06:40;4.95;;;2.95;;
56141;SDS011;42018;48.588;10.836;2023-07-13T03:09:26;5.80;;;3.10;;
56141;SDS011;42018;48.588;10.836;2023-07-13T03:12:11;5.28;;;2.75;;
56141;SDS011;42018;48.588;10.836;2023-07-13T03:14:57;5.90;;;2.80;;
56141;SDS011;42018;48.588;10.836;2023-07-13T03:17:42;5.57;;;2.78;;
56141;SDS011;42018;48.588;10.836;2023-07-13T03:20:27;6.53;;;2.22;;
56141;SDS011;42018;48.588;10.836;2023-07-13T03:23:13;8.10;;;2.45;;
56141;SDS011;42018;48.588;10.836;2023-07-13T03:26:06;6.13;;;2.53;;
56141;SDS011;42018;48.588;10.836;2023-07-13T03:28:51;6.18;;;2.40;;
56141;SDS011;42018;48.588;10.836;2023-07-13T03:31:37;4.82;;;2.33;;
56141;SDS011;42018;48.588;10.836;2023-07-13T03:34:22;5.45;;;2.40;;
56141;SDS011;42018;48.588;10.836;2023-07-13T03:37:08;4.63;;;2.40;;
56141;SDS011;42018;48.588;10.836;2023-07-13T03:39:54;5.40;;;2.40;;
56141;SDS011;42018;48.588;10.836;2023-07-13T03:42:39;5.03;;;2.22;;
56141;SDS011;42018;48.588;10.836;2023-07-13T03:45:25;6.05;;;2.20;;
56141;SDS011;42018;48.588;10.836;2023-07-13T03:48:10;4.63;;;2.10;;
56141;SDS011;42018;48.588;10.836;2023-07-13T03:50:55;6.20;;;2.10;;
56141;SDS011;42018;48.588;10.836;2023-07-13T03:53:42;5.20;;;2.08;;
56141;SDS011;42018;48.588;10.836;2023-07-13T03:56:28;7.70;;;2.20;;
56141;SDS011;42018;48.588;10.836;2023-07-13T03:59:15;4.25;;;2.00;;
56141;SDS011;42018;48.588;10.836;2023-07-13T04:02:01;6.80;;;2.00;;
56141;SDS011;42018;48.588;10.836;2023-07-13T04:04:49;5.45;;;2.10;;
56141;SDS011;42018;48.588;10.836;2023-07-13T04:07:34;6.20;;;2.03;;
56141;SDS011;42018;48.588;10.836;2023-07-13T04:10:19;4.80;;;1.95;;
56141;SDS011;42018;48.588;10.836;2023-07-13T04:13:05;6.90;;;1.80;;
56141;SDS011;42018;48.588;10.836;2023-07-13T04:15:51;4.35;;;1.55;;
56141;SDS011;42018;48.588;10.836;2023-07-13T04:18:37;4.85;;;1.60;;
56141;SDS011;42018;48.588;10.836;2023-07-13T04:21:22;6.65;;;1.80;;
56141;SDS011;42018;48.588;10.836;2023-07-13T04:24:08;3.95;;;1.70;;
56141;SDS011;42018;48.588;10.836;2023-07-13T04:26:54;4.05;;;1.55;;
56141;SDS011;42018;48.588;10.836;2023-07-13T04:29:39;4.05;;;1.70;;
56141;SDS011;42018;48.588;10.836;2023-07-13T04:32:24;3.08;;;1.40;;
56141;SDS011;42018;48.588;10.836;2023-07-13T04:35:10;4.53;;;1.50;;
56141;SDS011;42018;48.588;10.836;2023-07-13T04:37:55;4.38;;;1.55;;
56141;SDS011;42018;48.588;10.836;2023-07-13T04:40:41;5.28;;;1.65;;
56141;SDS011;42018;48.588;10.836;2023-07-13T04:43:28;3.67;;;1.65;;
56141;SDS011;42018;48.588;10.836;2023-07-13T04:46:15;4.93;;;1.38;;
56141;SDS011;42018;48.588;10.836;2023-07-13T04:49:05;4.60;;;1.73;;
56141;SDS011;42018;48.588;10.836;2023-07-13T04:51:50;4.47;;;1.67;;
56141;SDS011;42018;48.588;10.836;2023-07-13T04:54:35;7.78;;;1.67;;
56141;SDS011;42018;48.588;10.836;2023-07-13T04:57:22;4.85;;;1.50;;
56141;SDS011;42018;48.588;10.836;2023-07-13T05:00:07;4.10;;;1.35;;
56141;SDS011;42018;48.588;10.836;2023-07-13T05:02:54;3.83;;;1.50;;
56141;SDS011;42018;48.588;10.836;2023-07-13T05:05:42;4.88;;;1.60;;
56141;SDS011;42018;48.588;10.836;2023-07-13T05:08:27;3.47;;;1.52;;
56141;SDS011;42018;48.588;10.836;2023-07-13T05:11:13;4.15;;;1.60;;
56141;SDS011;42018;48.588;10.836;2023-07-13T05:13:58;4.75;;;1.55;;
56141;SDS011;42018;48.588;10.836;2023-07-13T05:16:44;4.07;;;1.45;;
56141;SDS011;42018;48.588;10.836;2023-07-13T05:19:29;3.55;;;1.30;;
56141;SDS011;42018;48.588;10.836;2023-07-13T05:22:15;4.13;;;1.60;;
56141;SDS011;42018;48.588;10.836;2023-07-13T05:25:01;3.33;;;1.20;;
56141;SDS011;42018;48.588;10.836;2023-07-13T05:27:49;4.30;;;1.60;;
56141;SDS011;42018;48.588;10.836;2023-07-13T05:30:34;6.00;;;1.70;;
56141;SDS011;42018;48.588;10.836;2023-07-13T05:33:20;4.35;;;1.70;;
56141;SDS011;42018;48.588;10.836;2023-07-13T05:36:06;3.97;;;1.50;;
56141;SDS011;42018;48.588;10.836;2023-07-13T05:38:52;4.15;;;1.30;;
56141;SDS011;42018;48.588;10.836;2023-07-13T05:41:37;2.53;;;1.20;;
56141;SDS011;42018;48.588;10.836;2023-07-13T05:44:23;3.50;;;1.30;;
56141;SDS011;42018;48.588;10.836;2023-07-13T05:47:08;2.42;;;1.17;;
56141;SDS011;42018;48.588;10.836;2023-07-13T05:49:53;3.13;;;1.30;;
56141;SDS011;42018;48.588;10.836;2023-07-13T05:52:39;4.82;;;1.30;;
56141;SDS011;42018;48.588;10.836;2023-07-13T05:55:24;3.25;;;1.30;;
56141;SDS011;42018;48.588;10.836;2023-07-13T05:58:11;2.70;;;1.30;;
56141;SDS011;42018;48.588;10.836;2023-07-13T06:01:01;4.05;;;1.40;;
56141;SDS011;42018;48.588;10.836;2023-07-13T06:03:51;5.47;;;1.52;;
56141;SDS011;42018;48.588;10.836;2023-07-13T06:06:36;3.72;;;1.33;;
56141;SDS011;42018;48.588;10.836;2023-07-13T06:09:21;3.97;;;1.50;;
56141;SDS011;42018;48.588;10.836;2023-07-13T06:12:07;3.95;;;1.10;;
56141;SDS011;42018;48.588;10.836;2023-07-13T06:14:52;3.47;;;1.27;;
56141;SDS011;42018;48.588;10.836;2023-07-13T06:17:38;3.50;;;1.20;;
56141;SDS011;42018;48.588;10.836;2023-07-13T06:20:23;4.03;;;1.42;;
56141;SDS011;42018;48.588;10.836;2023-07-13T06:23:08;5.65;;;1.30;;
56141;SDS011;42018;48.588;10.836;2023-07-13T06:25:54;3.88;;;1.30;;
56141;SDS011;42018;48.588;10.836;2023-07-13T06:28:39;3.65;;;1.20;;
56141;SDS011;42018;48.588;10.836;2023-07-13T06:31:25;2.65;;;1.20;;
56141;SDS011;42018;48.588;10.836;2023-07-13T06:34:10;3.78;;;1.20;;
56141;SDS011;42018;48.588;10.836;2023-07-13T06:36:55;3.78;;;1.23;;
56141;SDS011;42018;48.588;10.836;2023-07-13T06:39:41;4.03;;;1.30;;
56141;SDS011;42018;48.588;10.836;2023-07-13T06:42:26;3.80;;;1.08;;
56141;SDS011;42018;48.588;10.836;2023-07-13T06:45:11;2.90;;;1.20;;
56141;SDS011;42018;48.588;10.836;2023-07-13T06:47:57;3.03;;;1.27;;
56141;SDS011;42018;48.588;10.836;2023-07-13T06:50:42;3.08;;;1.20;;
56141;SDS011;42018;48.588;10.836;2023-07-13T06:53:28;4.88;;;1.35;;
56141;SDS011;42018;48.588;10.836;2023-07-13T06:56:13;3.30;;;1.10;;
56141;SDS011;42018;48.588;10.836;2023-07-13T06:58:59;2.47;;;1.10;;
56141;SDS011;42018;48.588;10.836;2023-07-13T07:01:44;2.45;;;1.15;;
56141;SDS011;42018;48.588;10.836;2023-07-13T07:04:30;4.75;;;1.00;;
56141;SDS011;42018;48.588;10.836;2023-07-13T07:07:15;2.95;;;1.10;;
56141;SDS011;42018;48.588;10.836;2023-07-13T07:10:01;3.72;;;1.10;;
56141;SDS011;42018;48.588;10.836;2023-07-13T07:12:46;2.95;;;1.10;;
56141;SDS011;42018;48.588;10.836;2023-07-13T07:15:31;4.22;;;1.58;;
56141;SDS011;42018;48.588;10.836;2023-07-13T07:18:17;1.88;;;0.80;;
56141;SDS011;42018;48.588;10.836;2023-07-13T07:21:02;4.03;;;1.25;;
56141;SDS011;42018;48.588;10.836;2023-07-13T07:23:47;2.40;;;0.90;;
56141;SDS011;42018;48.588;10.836;2023-07-13T07:26:33;3.42;;;1.10;;
56141;SDS011;42018;48.588;10.836;2023-07-13T07:29:19;2.42;;;0.98;;
56141;SDS011;42018;48.588;10.836;2023-07-13T07:32:04;3.33;;;1.00;;
56141;SDS011;42018;48.588;10.836;2023-07-13T07:34:50;3.00;;;1.13;;
56141;SDS011;42018;48.588;10.836;2023-07-13T07:37:35;1.95;;;0.95;;
56141;SDS011;42018;48.588;10.836;2023-07-13T07:40:21;3.60;;;1.17;;
56141;SDS011;42018;48.588;10.836;2023-07-13T07:43:10;4.15;;;1.23;;
56141;SDS011;42018;48.588;10.836;2023-07-13T07:45:56;4.28;;;1.00;;
56141;SDS011;42018;48.588;10.836;2023-07-13T07:48:42;2.53;;;1.10;;
56141;SDS011;42018;48.588;10.836;2023-07-13T07:51:27;2.97;;;1.02;;
56141;SDS011;42018;48.588;10.836;2023-07-13T07:54:13;2.55;;;1.05;;
56141;SDS011;42018;48.588;10.836;2023-07-13T07:56:59;3.03;;;1.20;;
56141;SDS011;42018;48.588;10.836;2023-07-13T07:59:45;2.85;;;0.93;;
56141;SDS011;42018;48.588;10.836;2023-07-13T08:02:30;2.58;;;1.10;;
56141;SDS011;42018;48.588;10.836;2023-07-13T08:05:15;3.33;;;1.00;;
56141;SDS011;42018;48.588;10.836;2023-07-13T08:08:01;2.50;;;1.00;;
56141;SDS011;42018;48.588;10.836;2023-07-13T08:10:46;2.50;;;1.05;;
56141;SDS011;42018;48.588;10.836;2023-07-13T08:13:32;3.22;;;1.00;;
56141;SDS011;42018;48.588;10.836;2023-07-13T08:16:17;3.60;;;1.15;;
56141;SDS011;42018;48.588;10.836;2023-07-13T08:19:03;1.67;;;0.90;;
56141;SDS011;42018;48.588;10.836;2023-07-13T08:21:49;3.55;;;1.10;;
56141;SDS011;42018;48.588;10.836;2023-07-13T08:24:34;3.55;;;1.00;;
56141;SDS011;42018;48.588;10.836;2023-07-13T08:27:20;4.38;;;1.10;;
56141;SDS011;42018;48.588;10.836;2023-07-13T08:30:05;3.67;;;1.00;;
56141;SDS011;42018;48.588;10.836;2023-07-13T08:32:53;2.15;;;0.80;;
56141;SDS011;42018;48.588;10.836;2023-07-13T08:35:39;2.80;;;1.10;;
56141;SDS011;42018;48.588;10.836;2023-07-13T08:38:24;3.13;;;1.00;;
56141;SDS011;42018;48.588;10.836;2023-07-13T08:41:14;5.07;;;1.20;;
56141;SDS011;42018;48.588;10.836;2023-07-13T08:44:02;2.70;;;1.10;;
56141;SDS011;42018;48.588;10.836;2023-07-13T08:46:51;2.03;;;0.88;;
56141;SDS011;42018;48.588;10.836;2023-07-13T08:49:40;2.70;;;0.90;;
56141;SDS011;42018;48.588;10.836;2023-07-13T08:52:29;3.53;;;1.10;;
56141;SDS011;42018;48.588;10.836;2023-07-13T08:55:24;3.42;;;1.10;;
56141;SDS011;42018;48.588;10.836;2023-07-13T08:58:16;2.40;;;0.90;;
56141;SDS011;42018;48.588;10.836;2023-07-13T09:04:18;3.83;;;1.00;;
56141;SDS011;42018;48.588;10.836;2023-07-13T09:16:14;3.00;;;1.00;;
56141;SDS011;42018;48.588;10.836;2023-07-13T09:19:02;3.15;;;1.00;;
56141;SDS011;42018;48.588;10.836;2023-07-13T09:21:50;2.88;;;1.10;;
56141;SDS011;42018;48.588;10.836;2023-07-13T09:24:41;2.88;;;1.05;;
56141;SDS011;42018;48.588;10.836;2023-07-13T09:27:41;2.40;;;1.00;;
56141;SDS011;42018;48.588;10.836;2023-07-13T09:30:37;2.88;;;1.10;;
56141;SDS011;42018;48.588;10.836;2023-07-13T09:33:30;4.10;;;1.23;;
56141;SDS011;42018;48.588;10.836;2023-07-13T09:36:17;2.90;;;1.10;;
56141;SDS011;42018;48.588;10.836;2023-07-13T09:39:10;3.80;;;1.10;;
56141;SDS011;42018;48.588;10.836;2023-07-13T09:42:01;3.22;;;1.00;;
56141;SDS011;42018;48.588;10.836;2023-07-13T09:44:56;2.90;;;1.00;;
56141;SDS011;42018;48.588;10.836;2023-07-13T09:47:43;4.57;;;1.10;;
56141;SDS011;42018;48.588;10.836;2023-07-13T09:50:29;3.50;;;1.10;;
56141;SDS011;42018;48.588;10.836;2023-07-13T09:53:15;2.88;;;1.17;;
56141;SDS011;42018;48.588;10.836;2023-07-13T09:56:03;2.50;;;1.00;;
56141;SDS011;42018;48.588;10.836;2023-07-13T09:58:48;3.72;;;1.27;;
56141;SDS011;42018;48.588;10.836;2023-07-13T10:01:37;3.33;;;1.20;;
56141;SDS011;42018;48.588;10.836;2023-07-13T10:04:33;7.72;;;1.20;;
56141;SDS011;42018;48.588;10.836;2023-07-13T10:07:19;3.50;;;1.27;;
56141;SDS011;42018;48.588;10.836;2023-07-13T10:10:14;4.75;;;1.20;;
56141;SDS011;42018;48.588;10.836;2023-07-13T10:13:02;3.72;;;1.25;;
56141;SDS011;42018;48.588;10.836;2023-07-13T10:15:50;3.83;;;1.10;;
56141;SDS011;42018;48.588;10.836;2023-07-13T10:18:38;3.03;;;1.10;;
56141;SDS011;42018;48.588;10.836;2023-07-13T10:21:36;3.03;;;1.25;;
56141;SDS011;42018;48.588;10.836;2023-07-13T10:24:27;2.70;;;1.15;;
56141;SDS011;42018;48.588;10.836;2023-07-13T10:27:18;4.07;;;1.30;;
56141;SDS011;42018;48.588;10.836;2023-07-13T10:30:21;2.00;;;1.08;;
56141;SDS011;42018;48.588;10.836;2023-07-13T10:33:14;2.65;;;1.00;;
56141;SDS011;42018;48.588;10.836;2023-07-13T10:36:08;3.90;;;1.10;;
56141;SDS011;42018;48.588;10.836;2023-07-13T10:39:01;3.75;;;1.20;;
56141;SDS011;42018;48.588;10.836;2023-07-13T10:41:54;3.92;;;1.25;;
56141;SDS011;42018;48.588;10.836;2023-07-13T10:44:45;2.10;;;0.90;;
56141;SDS011;42018;48.588;10.836;2023-07-13T10:47:30;1.92;;;0.93;;
56141;SDS011;42018;48.588;10.836;2023-07-13T10:50:20;3.47;;;0.90;;
56141;SDS011;42018;48.588;10.836;2023-07-13T10:53:20;3.90;;;1.10;;
56141;SDS011;42018;48.588;10.836;2023-07-13T10:56:30;1.75;;;0.90;;
56141;SDS011;42018;48.588;10.836;2023-07-13T10:59:24;3.10;;;1.13;;
56141;SDS011;42018;48.588;10.836;2023-07-13T11:02:12;2.97;;;0.90;;
56141;SDS011;42018;48.588;10.836;2023-07-13T11:05:17;4.97;;;0.90;;
56141;SDS011;42018;48.588;10.836;2023-07-13T11:17:35;2.67;;;0.88;;
56141;SDS011;42018;48.588;10.836;2023-07-13T11:20:23;2.05;;;0.90;;
56141;SDS011;42018;48.588;10.836;2023-07-13T11:23:19;2.97;;;1.13;;
56141;SDS011;42018;48.588;10.836;2023-07-13T11:29:37;1.95;;;0.80;;
56141;SDS011;42018;48.588;10.836;2023-07-13T11:32:24;2.53;;;1.00;;
56141;SDS011;42018;48.588;10.836;2023-07-13T11:35:16;2.85;;;0.85;;
56141;SDS011;42018;48.588;10.836;2023-07-13T11:38:19;2.13;;;0.90;;
56141;SDS011;42018;48.588;10.836;2023-07-13T11:47:00;2.15;;;0.90;;
56141;SDS011;42018;48.588;10.836;2023-07-13T11:49:55;3.00;;;0.80;;
56141;SDS011;42018;48.588;10.836;2023-07-13T11:52:44;3.17;;;0.80;;
56141;SDS011;42018;48.588;10.836;2023-07-13T11:55:30;3.13;;;0.80;;
56141;SDS011;42018;48.588;10.836;2023-07-13T11:58:17;1.67;;;0.77;;
56141;SDS011;42018;48.588;10.836;2023-07-13T12:01:06;4.10;;;1.00;;
56141;SDS011;42018;48.588;10.836;2023-07-13T12:03:52;3.33;;;0.95;;
56141;SDS011;42018;48.588;10.836;2023-07-13T12:06:38;2.67;;;0.98;;
56141;SDS011;42018;48.588;10.836;2023-07-13T12:09:27;3.67;;;1.00;;
56141;SDS011;42018;48.588;10.836;2023-07-13T12:12:14;2.00;;;1.00;;
56141;SDS011;42018;48.588;10.836;2023-07-13T12:15:08;2.22;;;0.90;;
56141;SDS011;42018;48.588;10.836;2023-07-13T12:17:56;2.08;;;0.80;;
56141;SDS011;42018;48.588;10.836;2023-07-13T12:20:42;4.40;;;0.90;;
56141;SDS011;42018;48.588;10.836;2023-07-13T12:23:29;2.25;;;0.95;;
56141;SDS011;42018;48.588;10.836;2023-07-13T12:26:17;1.88;;;0.90;;
56141;SDS011;42018;48.588;10.836;2023-07-13T12:29:05;2.10;;;0.80;;
56141;SDS011;42018;48.588;10.836;2023-07-13T12:31:51;2.90;;;0.80;;
56141;SDS011;42018;48.588;10.836;2023-07-13T12:34:49;2.20;;;0.70;;
56141;SDS011;42018;48.588;10.836;2023-07-13T12:37:44;1.75;;;0.88;;
56141;SDS011;42018;48.588;10.836;2023-07-13T12:40:32;3.08;;;0.88;;
56141;SDS011;42018;48.588;10.836;2023-07-13T12:43:20;3.03;;;1.17;;
56141;SDS011;42018;48.588;10.836;2023-07-13T12:49:07;2.15;;;0.90;;
56141;SDS011;42018;48.588;10.836;2023-07-13T12:51:56;2.97;;;0.90;;
56141;SDS011;42018;48.588;10.836;2023-07-13T12:54:54;2.33;;;0.80;;
56141;SDS011;42018;48.588;10.836;2023-07-13T12:57:45;3.30;;;0.95;;
56141;SDS011;42018;48.588;10.836;2023-07-13T13:00:36;1.67;;;0.80;;
56141;SDS011;42018;48.588;10.836;2023-07-13T13:03:33;1.35;;;0.70;;
56141;SDS011;42018;48.588;10.836;2023-07-13T13:06:25;4.32;;;0.90;;
56141;SDS011;42018;48.588;10.836;2023-07-13T13:09:12;2.50;;;0.85;;
56141;SDS011;42018;48.588;10.836;2023-07-13T13:12:00;3.35;;;0.90;;
56141;SDS011;42018;48.588;10.836;2023-07-13T13:14:45;3.05;;;0.88;;
56141;SDS011;42018;48.588;10.836;2023-07-13T13:17:31;2.65;;;0.88;;
56141;SDS011;42018;48.588;10.836;2023-07-13T13:20:17;2.35;;;0.90;;
56141;SDS011;42018;48.588;10.836;2023-07-13T13:23:04;2.42;;;1.00;;
56141;SDS011;42018;48.588;10.836;2023-07-13T13:25:50;2.30;;;0.93;;
56141;SDS011;42018;48.588;10.836;2023-07-13T13:28:38;3.30;;;0.90;;
56141;SDS011;42018;48.588;10.836;2023-07-13T13:31:24;3.05;;;1.10;;
56141;SDS011;42018;48.588;10.836;2023-07-13T13:34:10;2.85;;;0.88;;
56141;SDS011;42018;48.588;10.836;2023-07-13T13:37:00;2.90;;;0.90;;
56141;SDS011;42018;48.588;10.836;2023-07-13T13:39:45;2.65;;;1.02;;
56141;SDS011;42018;48.588;10.836;2023-07-13T13:42:31;3.72;;;1.20;;
56141;SDS011;42018;48.588;10.836;2023-07-13T13:45:17;2.47;;;0.70;;
56141;SDS011;42018;48.588;10.836;2023-07-13T13:48:03;2.22;;;0.88;;
56141;SDS011;42018;48.588;10.836;2023-07-13T13:50:48;2.38;;;0.90;;
56141;SDS011;42018;48.588;10.836;2023-07-13T13:53:34;3.50;;;1.00;;
56141;SDS011;42018;48.588;10.836;2023-07-13T13:56:19;2.40;;;0.80;;
56141;SDS011;42018;48.588;10.836;2023-07-13T13:59:05;1.90;;;0.80;;
56141;SDS011;42018;48.588;10.836;2023-07-13T14:01:51;2.97;;;0.90;;
56141;SDS011;42018;48.588;10.836;2023-07-13T14:04:36;3.17;;;1.00;;
56141;SDS011;42018;48.588;10.836;2023-07-13T14:07:22;1.80;;;0.98;;
56141;SDS011;42018;48.588;10.836;2023-07-13T14:10:11;4.00;;;0.98;;
56141;SDS011;42018;48.588;10.836;2023-07-13T14:13:43;2.97;;;0.88;;
56141;SDS011;42018;48.588;10.836;2023-07-13T14:16:52;2.85;;;0.80;;
56141;SDS011;42018;48.588;10.836;2023-07-13T14:19:40;1.95;;;0.80;;
56141;SDS011;42018;48.588;10.836;2023-07-13T14:22:26;3.38;;;1.05;;
56141;SDS011;42018;48.588;10.836;2023-07-13T14:25:12;3.28;;;1.10;;
56141;SDS011;42018;48.588;10.836;2023-07-13T14:27:58;3.13;;;0.80;;
56141;SDS011;42018;48.588;10.836;2023-07-13T14:30:45;1.52;;;0.70;;
56141;SDS011;42018;48.588;10.836;2023-07-13T14:33:32;2.65;;;0.90;;
56141;SDS011;42018;48.588;10.836;2023-07-13T14:39:19;1.58;;;0.80;;
56141;SDS011;42018;48.588;10.836;2023-07-13T14:42:08;3.45;;;0.90;;
56141;SDS011;42018;48.588;10.836;2023-07-13T14:44:54;2.75;;;1.00;;
56141;SDS011;42018;48.588;10.836;2023-07-13T14:47:40;2.25;;;0.80;;
56141;SDS011;42018;48.588;10.836;2023-07-13T14:50:32;2.72;;;0.73;;
56141;SDS011;42018;48.588;10.836;2023-07-13T14:53:17;3.28;;;0.82;;
56141;SDS011;42018;48.588;10.836;2023-07-13T14:56:08;2.60;;;1.33;;
56141;SDS011;42018;48.588;10.836;2023-07-13T14:58:55;3.67;;;1.10;;
56141;SDS011;42018;48.588;10.836;2023-07-13T15:01:40;4.28;;;1.00;;
56141;SDS011;42018;48.588;10.836;2023-07-13T15:04:26;2.38;;;0.90;;
56141;SDS011;42018;48.588;10.836;2023-07-13T15:07:11;2.78;;;0.95;;
56141;SDS011;42018;48.588;10.836;2023-07-13T15:09:59;2.45;;;1.00;;
56141;SDS011;42018;48.588;10.836;2023-07-13T15:12:45;3.35;;;1.02;;
56141;SDS011;42018;48.588;10.836;2023-07-13T15:15:31;2.65;;;1.00;;
56141;SDS011;42018;48.588;10.836;2023-07-13T15:18:19;2.35;;;0.88;;
56141;SDS011;42018;48.588;10.836;2023-07-13T15:21:08;2.58;;;0.88;;
56141;SDS011;42018;48.588;10.836;2023-07-13T15:23:58;2.08;;;0.77;;
56141;SDS011;42018;48.588;10.836;2023-07-13T15:26:44;2.22;;;0.93;;
56141;SDS011;42018;48.588;10.836;2023-07-13T15:29:31;1.33;;;0.77;;
56141;SDS011;42018;48.588;10.836;2023-07-13T15:32:17;2.63;;;0.85;;
56141;SDS011;42018;48.588;10.836;2023-07-13T15:35:04;3.58;;;1.02;;
56141;SDS011;42018;48.588;10.836;2023-07-13T15:37:51;5.40;;;0.88;;
56141;SDS011;42018;48.588;10.836;2023-07-13T15:40:37;1.50;;;0.70;;
56141;SDS011;42018;48.588;10.836;2023-07-13T15:43:22;4.38;;;2.33;;
56141;SDS011;42018;48.588;10.836;2023-07-13T15:46:08;3.53;;;0.90;;
56141;SDS011;42018;48.588;10.836;2023-07-13T15:48:54;1.98;;;0.80;;
56141;SDS011;42018;48.588;10.836;2023-07-13T15:51:39;1.70;;;0.70;;
56141;SDS011;42018;48.588;10.836;2023-07-13T15:54:25;1.98;;;0.80;;
56141;SDS011;42018;48.588;10.836;2023-07-13T15:57:10;3.28;;;0.80;;
56141;SDS011;42018;48.588;10.836;2023-07-13T15:59:57;2.92;;;0.82;;
56141;SDS011;42018;48.588;10.836;2023-07-13T16:02:47;3.72;;;0.82;;
56141;SDS011;42018;48.588;10.836;2023-07-13T16:05:33;1.27;;;0.70;;
56141;SDS011;42018;48.588;10.836;2023-07-13T16:08:24;1.33;;;0.90;;
56141;SDS011;42018;48.588;10.836;2023-07-13T16:11:15;1.92;;;0.80;;
56141;SDS011;42018;48.588;10.836;2023-07-13T16:14:05;1.63;;;0.80;;
56141;SDS011;42018;48.588;10.836;2023-07-13T16:16:51;1.65;;;0.90;;
56141;SDS011;42018;48.588;10.836;2023-07-13T16:19:40;3.42;;;1.00;;
56141;SDS011;42018;48.588;10.836;2023-07-13T16:22:27;2.33;;;0.90;;
56141;SDS011;42018;48.588;10.836;2023-07-13T16:25:33;2.67;;;0.80;;
56141;SDS011;42018;48.588;10.836;2023-07-13T16:28:21;1.90;;;0.80;;
56141;SDS011;42018;48.588;10.836;2023-07-13T16:31:07;1.83;;;0.80;;
56141;SDS011;42018;48.588;10.836;2023-07-13T16:33:53;1.33;;;0.75;;
56141;SDS011;42018;48.588;10.836;2023-07-13T16:36:39;2.25;;;0.90;;
56141;SDS011;42018;48.588;10.836;2023-07-13T16:39:25;2.85;;;0.80;;
56141;SDS011;42018;48.588;10.836;2023-07-13T16:42:11;2.10;;;0.90;;
56141;SDS011;42018;48.588;10.836;2023-07-13T16:44:56;4.15;;;1.00;;
56141;SDS011;42018;48.588;10.836;2023-07-13T16:47:43;1.00;;;0.70;;
56141;SDS011;42018;48.588;10.836;2023-07-13T16:50:54;1.25;;;0.80;;
56141;SDS011;42018;48.588;10.836;2023-07-13T16:53:41;1.42;;;0.70;;
56141;SDS011;42018;48.588;10.836;2023-07-13T16:56:27;3.25;;;0.90;;
56141;SDS011;42018;48.588;10.836;2023-07-13T16:59:14;1.98;;;0.90;;
56141;SDS011;42018;48.588;10.836;2023-07-13T17:02:22;1.60;;;0.70;;
56141;SDS011;42018;48.588;10.836;2023-07-13T17:05:18;2.45;;;0.90;;
56141;SDS011;42018;48.588;10.836;2023-07-13T17:08:11;2.13;;;0.88;;
56141;SDS011;42018;48.588;10.836;2023-07-13T17:11:00;1.70;;;0.80;;
56141;SDS011;42018;48.588;10.836;2023-07-13T17:13:46;2.25;;;0.80;;
56141;SDS011;42018;48.588;10.836;2023-07-13T17:16:31;3.75;;;1.00;;
56141;SDS011;42018;48.588;10.836;2023-07-13T17:19:17;4.25;;;1.10;;